map of DRW home
DRW - Airport
Location
City:  Darwin, Northern Territory, Australia
Name:Darwin International Airport
ICAO:YPDN
IATA:DRW

Details
Type:Airport (Aerodrome, Airfield)
Use:Public/Civil, International (customs port of entry)
Latitude:1224'53"S (-12.414721)
Longitude:13052'36"E (130.876667)
Datum:WGS 1984
Elevation:103 ft (31 m)
Variation:2.74E (WMM2015 magnetic declination)
-0.09 annual change
Runways:2
Longest:11004 × 197 ft (3354 × 60 m), paved

Time
Time Zone:UTC+9:30
Local Time:

Weather
METAR:YPDN 232230Z 25003KT 9999 FEW022 SCT230 BKN320 29/25 Q1011 NOSIG
TAF:YPDN 231718Z 2318/2424 32009KT 9999 FEW030 PROB30
TEMPO 2403/2409 VRB20G35KT 1000 TSRA BKN010 SCT020CB

Related Locations
Nearby:
Farthest:CAY: 11866 mi / 19096 km
Cayenne [Rochambeau], GF

Find:

   beyond  
but within

Other Information
Maps:
NOTAMs:
Links:
Sources:

  
flag of Australia
flag of Northern Territory
  

Airport Diagram

Airport diagram for DRW

Airport diagram (OBSOLETE) from NGA

Sectional Chart

Flight Planning
at skyvector.com

Satellite Image

Google Maps Satellite view

 

Copyright © 2004-2017 Karl L. Swartz. All rights reserved.
The Great Circle Mapper name and logo are trademarks of the Great Circle Mapper.
All other trademarks mentioned herein belong to their respective owners.
Please see credits for attibutions and further copyright information.

  Follow gcmap on Facebook Follow gcmap on Twitter Follow gcmap on Google+ GCmap on LinkedIn

hCard Microformat

Geo Microformat